createdAt,value
2024-01-26T00:00:09.754Z,2.89
2024-01-26T00:05:37.287Z,2.88
2024-01-26T00:10:39.498Z,2.87
2024-01-26T00:15:41.628Z,2.87
2024-01-26T00:20:43.827Z,2.85
2024-01-26T00:25:46.114Z,2.83
2024-01-26T00:30:48.670Z,2.83
2024-01-26T00:36:04.384Z,2.82
2024-01-26T00:41:06.959Z,2.83
2024-01-26T00:46:12.036Z,2.82
2024-01-26T00:51:17.993Z,2.80
2024-01-26T00:56:20.200Z,2.78
2024-01-26T01:01:24.514Z,2.77
2024-01-26T01:06:27.244Z,2.75
2024-01-26T01:11:41.305Z,2.74
2024-01-26T01:16:43.509Z,2.72
2024-01-26T01:21:48.381Z,2.72
2024-01-26T01:26:50.400Z,2.72
2024-01-26T01:31:52.888Z,2.71
2024-01-26T01:37:15.424Z,2.72
2024-01-26T01:42:17.404Z,2.70
2024-01-26T01:47:27.208Z,2.69
2024-01-26T01:52:30.059Z,2.69
2024-01-26T01:57:33.144Z,2.67
2024-01-26T02:02:36.439Z,2.63
2024-01-26T02:08:19.431Z,2.61
2024-01-26T02:13:21.572Z,2.59
2024-01-26T02:18:26.766Z,2.57
2024-01-26T02:23:48.763Z,2.57
2024-01-26T02:28:53.508Z,2.58
2024-01-26T02:33:55.687Z,2.57
2024-01-26T02:39:00.915Z,2.57
2024-01-26T02:44:03.529Z,2.57
2024-01-26T02:49:06.678Z,2.54
2024-01-26T02:54:09.014Z,2.52
2024-01-26T02:59:11.401Z,2.50
2024-01-26T03:04:16.189Z,2.50
2024-01-26T03:09:18.650Z,2.51
2024-01-26T03:14:23.979Z,2.51
2024-01-26T03:19:46.407Z,2.49
2024-01-26T03:24:55.807Z,2.46
2024-01-26T03:30:02.187Z,2.43
2024-01-26T03:35:05.867Z,2.43
2024-01-26T03:40:08.640Z,2.42
2024-01-26T03:45:21.233Z,2.40
2024-01-26T03:50:26.398Z,2.40
2024-01-26T03:55:28.884Z,2.39
2024-01-26T04:00:44.072Z,2.40
2024-01-26T04:06:08.897Z,2.40
2024-01-26T04:11:13.334Z,2.41
2024-01-26T04:16:15.684Z,2.38
2024-01-26T04:21:27.859Z,2.37
2024-01-26T04:26:30.211Z,2.37
2024-01-26T04:31:32.502Z,2.38
2024-01-26T04:36:34.754Z,2.37
2024-01-26T04:41:47.988Z,2.37
2024-01-26T04:47:24.213Z,2.35
2024-01-26T04:52:50.142Z,2.33
2024-01-26T04:57:52.322Z,2.32
2024-01-26T05:02:54.639Z,2.33
2024-01-26T05:08:19.644Z,2.33
2024-01-26T05:13:42.153Z,2.30
2024-01-26T05:18:44.753Z,2.32
2024-01-26T05:23:49.548Z,2.33
2024-01-26T05:29:23.991Z,2.32
2024-01-26T05:34:35.261Z,2.31
2024-01-26T05:40:08.140Z,2.31
2024-01-26T05:45:14.010Z,2.28
2024-01-26T05:50:48.010Z,2.28
2024-01-26T05:55:53.165Z,2.29
2024-01-26T06:00:55.346Z,2.31
2024-01-26T06:06:05.275Z,2.31
2024-01-26T06:11:08.441Z,2.31
2024-01-26T06:16:14.730Z,2.31
2024-01-26T06:21:16.762Z,2.30
2024-01-26T06:26:20.800Z,2.31
2024-01-26T06:31:33.064Z,2.31
2024-01-26T06:36:45.796Z,2.32
2024-01-26T06:42:26.016Z,2.34
2024-01-26T06:47:28.341Z,2.34
2024-01-26T06:52:33.671Z,2.37
2024-01-26T06:57:39.242Z,2.37
2024-01-26T07:02:47.235Z,2.37
2024-01-26T07:07:59.458Z,2.38
2024-01-26T07:13:05.250Z,2.37
2024-01-26T07:18:30.399Z,2.39
2024-01-26T07:23:32.752Z,2.43
2024-01-26T07:28:44.959Z,2.45
2024-01-26T07:34:09.474Z,2.47
2024-01-26T07:39:11.987Z,2.52
2024-01-26T07:44:19.681Z,2.54
2024-01-26T07:49:21.964Z,2.57
2024-01-26T07:54:24.208Z,2.63
2024-01-26T07:59:28.899Z,2.66
2024-01-26T08:04:31.668Z,2.68
2024-01-26T08:10:06.770Z,2.72
2024-01-26T08:15:50.969Z,2.75
2024-01-26T08:20:53.373Z,2.73
2024-01-26T08:26:10.892Z,2.76
2024-01-26T08:31:23.538Z,2.81
2024-01-26T08:36:40.227Z,2.88
2024-01-26T08:41:56.212Z,2.97
2024-01-26T08:47:14.505Z,3.05
2024-01-26T08:53:29.885Z,3.07
2024-01-26T08:59:10.537Z,3.16
2024-01-26T09:04:23.965Z,3.21
2024-01-26T09:09:29.225Z,3.29
2024-01-26T09:14:31.476Z,3.33
2024-01-26T09:19:59.894Z,3.35
2024-01-26T09:25:14.197Z,3.38
2024-01-26T09:30:26.624Z,3.34
2024-01-26T09:35:28.849Z,3.40
2024-01-26T09:40:31.227Z,3.43
2024-01-26T09:45:38.348Z,3.47
2024-01-26T09:50:42.442Z,3.51
2024-01-26T09:56:06.861Z,3.56
2024-01-26T10:01:44.676Z,3.61
2024-01-26T10:07:00.667Z,3.63
2024-01-26T10:12:05.990Z,3.58
2024-01-26T10:17:08.138Z,3.56
2024-01-26T10:22:10.364Z,3.61
2024-01-26T10:27:12.922Z,3.62
2024-01-26T10:32:55.419Z,3.64
2024-01-26T10:37:59.017Z,3.70
2024-01-26T10:43:02.114Z,3.69
2024-01-26T10:48:13.537Z,3.66
2024-01-26T10:53:17.726Z,3.69
2024-01-26T10:58:34.363Z,3.78
2024-01-26T11:04:07.154Z,3.81
2024-01-26T11:09:22.796Z,3.84
2024-01-26T11:14:40.949Z,3.88
2024-01-26T11:20:20.566Z,3.91
2024-01-26T11:25:22.983Z,3.92
2024-01-26T11:31:12.441Z,3.94
2024-01-26T11:36:39.872Z,3.94
2024-01-26T11:41:45.680Z,3.87
2024-01-26T11:46:47.923Z,3.80
2024-01-26T11:51:50.292Z,3.81
2024-01-26T11:57:03.649Z,3.84
2024-01-26T12:02:16.668Z,3.85
2024-01-26T12:07:33.305Z,3.82
2024-01-26T12:13:07.567Z,3.80
2024-01-26T12:18:31.564Z,3.84
2024-01-26T12:23:34.896Z,3.87
2024-01-26T12:28:51.743Z,3.85
2024-01-26T12:34:10.797Z,3.83
2024-01-26T12:39:13.437Z,3.82
2024-01-26T12:44:15.597Z,3.79
2024-01-26T12:49:18.524Z,3.75
2024-01-26T12:54:52.731Z,3.71
2024-01-26T12:59:55.102Z,3.66
2024-01-26T13:05:01.475Z,3.62
2024-01-26T13:10:08.458Z,3.59
2024-01-26T13:15:11.356Z,3.56
2024-01-26T13:20:20.292Z,3.57
2024-01-26T13:25:31.185Z,3.59
2024-01-26T13:30:53.623Z,3.58
2024-01-26T13:36:07.693Z,3.57
2024-01-26T13:42:03.392Z,3.56
2024-01-26T13:47:05.923Z,3.55
2024-01-26T13:52:08.009Z,3.57
2024-01-26T13:57:15.042Z,3.62
2024-01-26T14:02:17.256Z,3.64
2024-01-26T14:07:38.974Z,3.66
2024-01-26T14:13:10.977Z,3.69
2024-01-26T14:18:29.233Z,3.72
2024-01-26T14:24:08.705Z,3.76
2024-01-26T14:29:18.654Z,3.76
2024-01-26T14:34:20.846Z,3.76
2024-01-26T14:39:23.720Z,3.78
2024-01-26T14:44:51.324Z,3.77
2024-01-26T14:50:57.648Z,3.81
2024-01-26T14:55:59.827Z,3.83
2024-01-26T15:01:01.923Z,3.83
2024-01-26T15:06:25.325Z,3.83
2024-01-26T15:11:27.576Z,3.83
2024-01-26T15:16:33.787Z,3.83
2024-01-26T15:21:41.865Z,3.80
2024-01-26T15:26:47.891Z,3.77
2024-01-26T15:32:13.210Z,3.78
2024-01-26T15:37:18.960Z,3.79
2024-01-26T15:42:21.376Z,3.76
2024-01-26T15:47:23.670Z,3.76
2024-01-26T15:52:30.770Z,3.74
2024-01-26T15:57:47.097Z,3.68
2024-01-26T16:02:52.582Z,3.61
2024-01-26T16:08:02.944Z,3.54
2024-01-26T16:13:05.426Z,3.52
2024-01-26T16:18:17.776Z,3.51
2024-01-26T16:23:19.998Z,3.48
2024-01-26T16:28:47.905Z,3.46
2024-01-26T16:33:50.283Z,3.42
2024-01-26T16:38:55.987Z,3.38
2024-01-26T16:44:18.964Z,3.32
2024-01-26T16:49:45.803Z,3.29
2024-01-26T16:55:12.402Z,3.25
2024-01-26T17:01:05.231Z,3.20
2024-01-26T17:06:27.781Z,3.15
2024-01-26T17:11:33.016Z,3.13
2024-01-26T17:17:10.612Z,3.13
2024-01-26T17:22:36.202Z,3.09
2024-01-26T17:27:38.724Z,3.07
2024-01-26T17:32:41.304Z,3.07
2024-01-26T17:38:00.587Z,3.07
2024-01-26T17:43:08.504Z,3.07
2024-01-26T17:48:13.790Z,3.06
2024-01-26T17:53:26.207Z,3.06
2024-01-26T17:58:30.317Z,3.07
2024-01-26T18:03:32.765Z,3.06
2024-01-26T18:08:35.411Z,3.07
2024-01-26T18:13:47.790Z,3.07
2024-01-26T18:18:52.276Z,3.05
2024-01-26T18:23:55.923Z,3.05
2024-01-26T18:28:58.102Z,3.07
2024-01-26T18:34:01.497Z,3.08
2024-01-26T18:39:04.770Z,3.08
2024-01-26T18:44:09.183Z,3.10
2024-01-26T18:49:27.404Z,3.12
2024-01-26T18:54:39.095Z,3.12
2024-01-26T18:59:46.384Z,3.14
2024-01-26T19:05:09.686Z,3.14
2024-01-26T19:10:42.497Z,3.14
2024-01-26T19:15:46.407Z,3.15
2024-01-26T19:20:51.949Z,3.14
2024-01-26T19:26:06.530Z,3.12
2024-01-26T19:31:11.863Z,3.13
2024-01-26T19:36:18.631Z,3.14
2024-01-26T19:41:23.289Z,3.14
2024-01-26T19:46:34.877Z,3.16
2024-01-26T19:51:50.823Z,3.18
2024-01-26T19:56:55.977Z,3.17
2024-01-26T20:02:18.746Z,3.21
2024-01-26T20:07:43.636Z,3.23
2024-01-26T20:13:08.976Z,3.17
2024-01-26T20:18:16.184Z,3.11
2024-01-26T20:24:18.224Z,3.05
2024-01-26T20:29:28.270Z,2.99
2024-01-26T20:34:52.188Z,2.94
2024-01-26T20:40:18.085Z,2.89
2024-01-26T20:45:20.562Z,2.90
2024-01-26T20:50:28.998Z,2.88
2024-01-26T20:55:33.220Z,2.87
2024-01-26T21:00:38.364Z,2.84
2024-01-26T21:05:43.446Z,2.84
2024-01-26T21:10:48.765Z,2.83
2024-01-26T21:16:01.797Z,2.83
2024-01-26T21:21:15.293Z,2.86
2024-01-26T21:26:27.997Z,2.88
2024-01-26T21:31:50.733Z,2.86
2024-01-26T21:37:42.847Z,2.89
2024-01-26T21:43:22.215Z,2.93
2024-01-26T21:49:03.476Z,2.94
2024-01-26T21:54:22.890Z,2.96
2024-01-26T22:00:00.810Z,2.99
2024-01-26T22:05:03.183Z,2.99
2024-01-26T22:10:08.502Z,3.03
2024-01-26T22:15:31.052Z,3.07
2024-01-26T22:20:54.106Z,3.13
2024-01-26T22:26:17.475Z,3.18
2024-01-26T22:31:32.274Z,3.20
2024-01-26T22:36:37.358Z,3.20
2024-01-26T22:41:52.872Z,3.22
2024-01-26T22:46:58.414Z,3.26
2024-01-26T22:52:00.691Z,3.30
2024-01-26T22:57:13.997Z,3.44
2024-01-26T23:02:53.449Z,3.58
2024-01-26T23:08:16.267Z,3.76
2024-01-26T23:13:18.170Z,3.92
2024-01-26T23:18:20.429Z,4.07
2024-01-26T23:23:22.720Z,4.24
2024-01-26T23:28:27.874Z,4.39
2024-01-26T23:33:33.187Z,4.56
2024-01-26T23:38:38.450Z,4.77
2024-01-26T23:43:40.597Z,4.91
2024-01-26T23:49:09.330Z,5.01
2024-01-26T23:54:16.062Z,5.09
2024-01-26T23:59:25.913Z,5.14
